Time;durP1;ratioP1;P1;durP2;ratioP2;P2;SDS_P1;SDS_P2;PMS_P1;PMS_P2;Temp;Humidity;BMP_temperature;BMP_pressure;BME280_temperature;BME280_humidity;BME280_pressure;Samples;Min_cycle;Max_cycle;Signal;HPM_P1;HPM_P2
2020/12/09 00:01:49;;;;;;;41.70;24.60;;;2.30;99.90;;;;;;5051670;28;20195;-83
2020/12/09 00:04:16;;;;;;;34.75;22.27;;;2.20;99.90;;;;;;5050970;28;20321;-83
2020/12/09 00:06:42;;;;;;;38.00;22.25;;;2.30;99.90;;;;;;5050783;28;20242;-82
2020/12/09 00:09:11;;;;;;;37.30;22.75;;;2.20;99.90;;;;;;5051270;28;20563;-83
2020/12/09 00:11:37;;;;;;;44.88;24.30;;;2.40;99.90;;;;;;5050736;28;20243;-83
2020/12/09 00:14:04;;;;;;;35.53;21.10;;;2.50;99.90;;;;;;5050121;28;20250;-83
2020/12/09 00:16:31;;;;;;;37.00;22.27;;;2.60;99.90;;;;;;5050915;28;20235;-83
2020/12/09 00:18:59;;;;;;;33.72;21.58;;;2.60;99.90;;;;;;5051097;28;20246;-83
2020/12/09 00:21:26;;;;;;;41.08;22.58;;;2.50;99.90;;;;;;5050937;28;20204;-83
2020/12/09 00:23:53;;;;;;;45.88;24.70;;;2.40;99.90;;;;;;5050201;28;20200;-83
2020/12/09 00:26:20;;;;;;;36.05;23.25;;;2.30;99.90;;;;;;5051066;28;20903;-81
2020/12/09 00:28:47;;;;;;;38.17;21.75;;;2.40;99.90;;;;;;5050733;28;20258;-83
2020/12/09 00:31:14;;;;;;;32.78;20.38;;;2.60;99.90;;;;;;5050823;28;20277;-83
2020/12/09 00:33:40;;;;;;;40.45;21.80;;;2.80;99.90;;;;;;5050024;28;20250;-83
2020/12/09 00:36:07;;;;;;;38.72;23.98;;;2.50;99.90;;;;;;5050590;28;20236;-83
2020/12/09 00:38:34;;;;;;;38.92;23.90;;;2.50;99.90;;;;;;5050806;28;20199;-83
2020/12/09 00:41:00;;;;;;;31.63;21.52;;;2.60;99.90;;;;;;5050873;28;20235;-83
2020/12/09 00:43:27;;;;;;;43.78;23.25;;;2.60;99.90;;;;;;5050003;28;20228;-83
2020/12/09 00:45:53;;;;;;;39.53;23.15;;;2.40;99.90;;;;;;5050475;28;20677;-83
2020/12/09 00:48:19;;;;;;;36.35;23.45;;;2.30;99.90;;;;;;5050290;28;20296;-82
2020/12/09 00:50:46;;;;;;;35.08;23.05;;;2.40;99.90;;;;;;5049331;28;20270;-83
2020/12/09 00:53:13;;;;;;;40.25;24.08;;;2.30;99.90;;;;;;5051054;28;20227;-83
2020/12/09 00:55:39;;;;;;;34.20;22.25;;;2.20;99.90;;;;;;5050087;28;20243;-82
2020/12/09 00:58:06;;;;;;;36.17;20.88;;;2.30;99.90;;;;;;5050942;28;20257;-83
2020/12/09 01:00:32;;;;;;;39.92;22.90;;;2.20;99.90;;;;;;5050586;28;20231;-83
2020/12/09 01:02:59;;;;;;;36.15;21.33;;;2.20;99.90;;;;;;5050605;28;20536;-82
2020/12/09 01:05:25;;;;;;;39.42;22.60;;;2.30;99.90;;;;;;5050080;28;20662;-83
2020/12/09 01:07:51;;;;;;;35.50;22.80;;;2.30;99.90;;;;;;5050615;28;20204;-83
2020/12/09 01:10:19;;;;;;;39.88;23.02;;;2.30;99.90;;;;;;5050878;28;20841;-83
2020/12/09 01:12:45;;;;;;;42.42;24.17;;;2.50;99.90;;;;;;5050433;28;20247;-83
2020/12/09 01:15:11;;;;;;;37.45;23.80;;;2.60;99.90;;;;;;5050095;28;20223;-83
2020/12/09 01:17:38;;;;;;;37.10;22.67;;;2.70;99.90;;;;;;5050128;28;20243;-83
2020/12/09 01:20:05;;;;;;;36.15;23.25;;;2.70;99.90;;;;;;5050409;28;20199;-83
2020/12/09 01:22:32;;;;;;;37.00;22.85;;;2.80;99.90;;;;;;5049339;28;20223;-82
2020/12/09 01:24:59;;;;;;;32.22;21.50;;;2.70;99.90;;;;;;5049023;28;20226;-83
2020/12/09 01:27:26;;;;;;;35.28;20.77;;;2.60;99.90;;;;;;5050515;28;20203;-83
2020/12/09 01:29:52;;;;;;;41.17;24.48;;;2.50;99.90;;;;;;5050070;28;20727;-83
2020/12/09 01:32:19;;;;;;;37.45;22.45;;;2.50;99.90;;;;;;5049631;28;20242;-82
2020/12/09 01:34:45;;;;;;;32.60;22.27;;;2.60;99.90;;;;;;5049860;28;20255;-83
2020/12/09 01:37:12;;;;;;;39.38;22.17;;;2.50;99.90;;;;;;5050818;28;20231;-83
2020/12/09 01:39:39;;;;;;;35.03;22.23;;;2.40;99.90;;;;;;5050075;28;20688;-82
2020/12/09 01:42:06;;;;;;;36.75;23.30;;;2.60;99.90;;;;;;5050263;28;20227;-83
2020/12/09 01:44:33;;;;;;;35.42;23.27;;;2.60;99.90;;;;;;5037156;28;20224;-82
2020/12/09 01:47:04;;;;;;;37.72;23.00;;;2.90;99.90;;;;;;5030026;28;20802;-83
2020/12/09 01:49:32;;;;;;;39.67;22.55;;;3.00;99.90;;;;;;5030089;28;20285;-83
2020/12/09 01:51:59;;;;;;;34.17;22.30;;;3.20;99.90;;;;;;5030569;28;20208;-83
2020/12/09 01:54:26;;;;;;;45.20;25.60;;;3.30;99.90;;;;;;5029465;28;20262;-83
2020/12/09 01:57:07;;;;;;;40.05;23.58;;;3.50;99.90;;;;;;5030347;28;20219;-83
2020/12/09 01:59:34;;;;;;;34.90;22.95;;;3.20;99.90;;;;;;5029766;28;20231;-83
2020/12/09 02:02:01;;;;;;;36.80;22.65;;;3.30;99.90;;;;;;5029776;28;20240;-83
2020/12/09 02:04:29;;;;;;;33.90;21.75;;;3.30;99.90;;;;;;5038560;28;20192;-83
2020/12/09 02:06:58;;;;;;;37.33;22.67;;;3.40;99.90;;;;;;5047612;28;20202;-83
2020/12/09 02:09:26;;;;;;;34.17;22.10;;;3.40;99.90;;;;;;5036658;28;20698;-83
2020/12/09 02:11:56;;;;;;;35.28;22.92;;;3.40;99.90;;;;;;5044935;28;20657;-83
2020/12/09 02:14:27;;;;;;;42.25;23.58;;;3.50;99.90;;;;;;5047329;28;20274;-83
2020/12/09 02:16:56;;;;;;;36.67;22.58;;;3.60;99.90;;;;;;5029864;28;20204;-83
2020/12/09 02:19:24;;;;;;;36.05;23.10;;;3.70;99.90;;;;;;5029759;28;20203;-82
2020/12/09 02:21:53;;;;;;;36.97;22.88;;;3.80;99.90;;;;;;5027961;28;20632;-83
2020/12/09 02:24:20;;;;;;;41.78;24.15;;;3.80;99.90;;;;;;5041655;28;20207;-83
2020/12/09 02:26:49;;;;;;;35.95;21.90;;;3.80;99.90;;;;;;5050140;28;20206;-83
2020/12/09 02:29:17;;;;;;;38.45;22.75;;;3.90;99.90;;;;;;5049670;28;20713;-83
2020/12/09 02:31:45;;;;;;;39.35;22.42;;;3.90;99.90;;;;;;5049930;28;20200;-83
2020/12/09 02:34:13;;;;;;;35.28;21.85;;;4.00;99.90;;;;;;5043078;28;20204;-83
2020/12/09 02:36:40;;;;;;;37.28;24.75;;;3.90;99.90;;;;;;5046301;28;20200;-82
2020/12/09 02:39:09;;;;;;;36.15;24.05;;;3.90;99.90;;;;;;5042223;28;20197;-83
2020/12/09 02:41:36;;;;;;;39.03;23.17;;;3.80;99.90;;;;;;5042852;28;20204;-83
2020/12/09 02:44:03;;;;;;;37.60;22.45;;;3.80;99.90;;;;;;5052811;28;20289;-82
2020/12/09 02:46:30;;;;;;;36.67;22.17;;;3.90;99.90;;;;;;5039088;28;20606;-83
2020/12/09 02:48:57;;;;;;;46.45;24.67;;;3.90;99.90;;;;;;5032906;28;20197;-83
2020/12/09 02:51:23;;;;;;;39.17;23.33;;;3.90;99.90;;;;;;5032466;28;20251;-83
2020/12/09 02:53:50;;;;;;;41.72;24.98;;;3.90;99.90;;;;;;5036835;28;20192;-83
2020/12/09 02:56:17;;;;;;;44.60;25.45;;;3.90;99.90;;;;;;5053488;28;20562;-83
2020/12/09 02:58:44;;;;;;;35.25;23.25;;;3.70;99.80;;;;;;5053451;28;20665;-83
2020/12/09 03:01:10;;;;;;;36.40;24.77;;;3.70;99.90;;;;;;5052832;28;20235;-83
2020/12/09 03:03:37;;;;;;;45.20;25.90;;;3.70;99.90;;;;;;5052634;28;20200;-83
2020/12/09 03:06:03;;;;;;;38.95;23.92;;;3.80;99.90;;;;;;5052300;28;20200;-83
2020/12/09 03:08:29;;;;;;;46.78;26.15;;;3.90;99.90;;;;;;5053152;28;20235;-83
2020/12/09 03:10:56;;;;;;;43.47;25.45;;;3.70;99.90;;;;;;5052809;28;20277;-83
2020/12/09 03:13:23;;;;;;;37.15;24.20;;;3.80;99.90;;;;;;5052577;28;20253;-83
2020/12/09 03:15:49;;;;;;;49.40;28.50;;;3.80;99.90;;;;;;5052235;28;20235;-83
2020/12/09 03:18:16;;;;;;;44.33;26.20;;;3.70;99.90;;;;;;5052780;28;20331;-83
2020/12/09 03:20:45;;;;;;;40.05;25.67;;;3.80;99.90;;;;;;5051295;28;20226;-83
2020/12/09 03:23:11;;;;;;;43.60;25.63;;;3.90;99.90;;;;;;5052417;28;20206;-83
2020/12/09 03:25:38;;;;;;;39.30;24.23;;;3.90;99.90;;;;;;5052282;28;20659;-83
2020/12/09 03:28:04;;;;;;;42.35;26.00;;;3.90;99.90;;;;;;5052484;28;20234;-83
2020/12/09 03:30:31;;;;;;;38.53;24.95;;;3.80;99.90;;;;;;5052544;28;20554;-83
2020/12/09 03:32:58;;;;;;;36.22;23.80;;;3.80;99.90;;;;;;5052069;28;20208;-81
2020/12/09 03:35:24;;;;;;;37.55;22.85;;;3.50;99.90;;;;;;5051680;28;20616;-83
2020/12/09 03:37:50;;;;;;;43.88;26.27;;;3.30;99.90;;;;;;5052069;28;20254;-83
2020/12/09 03:40:17;;;;;;;33.97;22.30;;;3.00;99.90;;;;;;5052777;28;20659;-84
2020/12/09 03:42:44;;;;;;;37.95;23.63;;;3.20;99.90;;;;;;5052308;28;20719;-83
2020/12/09 03:45:10;;;;;;;40.90;24.50;;;3.10;99.90;;;;;;5051739;28;20549;-83
2020/12/09 03:47:37;;;;;;;35.72;24.17;;;3.20;99.90;;;;;;5050507;28;20251;-82
2020/12/09 03:50:07;;;;;;;40.08;24.70;;;3.10;99.90;;;;;;5052138;28;20254;-83
2020/12/09 03:52:34;;;;;;;43.00;26.10;;;3.20;99.90;;;;;;5052396;28;20219;-83
2020/12/09 03:55:00;;;;;;;39.55;24.20;;;3.20;99.90;;;;;;5051671;28;20258;-83
2020/12/09 03:57:27;;;;;;;39.30;26.75;;;3.30;99.90;;;;;;5051945;28;20231;-83
2020/12/09 03:59:53;;;;;;;39.65;26.60;;;3.10;99.90;;;;;;5052004;28;20616;-83
2020/12/09 04:02:19;;;;;;;37.33;23.10;;;2.90;99.90;;;;;;5051457;28;20649;-83
2020/12/09 04:04:46;;;;;;;47.65;26.75;;;2.70;99.90;;;;;;5051340;28;20200;-84
2020/12/09 04:07:13;;;;;;;41.50;23.67;;;2.90;99.90;;;;;;5051968;28;20188;-83
2020/12/09 04:09:39;;;;;;;38.88;24.52;;;2.80;99.90;;;;;;5051398;28;20251;-83
2020/12/09 04:12:06;;;;;;;41.60;26.42;;;2.70;99.90;;;;;;5052016;28;20242;-83
2020/12/09 04:14:33;;;;;;;40.17;25.25;;;2.70;99.90;;;;;;5051033;28;20268;-83
2020/12/09 04:16:59;;;;;;;40.97;24.42;;;2.60;99.90;;;;;;5051032;28;20238;-83
2020/12/09 04:19:25;;;;;;;40.22;26.13;;;2.50;99.90;;;;;;5051554;28;20204;-83
2020/12/09 04:21:53;;;;;;;41.70;24.90;;;2.50;99.90;;;;;;5050148;28;20817;-83
2020/12/09 04:24:19;;;;;;;38.58;25.00;;;2.40;99.90;;;;;;5051176;28;20257;-83
2020/12/09 04:26:46;;;;;;;36.75;24.27;;;2.30;99.90;;;;;;5051527;28;20257;-83
2020/12/09 04:29:12;;;;;;;44.20;26.63;;;2.40;99.90;;;;;;5051019;28;20203;-82
2020/12/09 04:31:38;;;;;;;42.47;26.23;;;2.50;99.90;;;;;;5051556;28;20258;-82
2020/12/09 04:34:05;;;;;;;41.95;26.20;;;2.50;99.90;;;;;;5051026;28;20200;-83
2020/12/09 04:36:33;;;;;;;41.88;25.83;;;2.70;99.90;;;;;;5050998;28;20718;-82
2020/12/09 04:39:00;;;;;;;45.55;26.52;;;2.70;99.90;;;;;;5051207;28;20246;-83
2020/12/09 04:41:27;;;;;;;40.63;26.10;;;2.90;99.90;;;;;;5051408;28;20208;-83
2020/12/09 04:43:53;;;;;;;42.63;27.83;;;2.90;99.90;;;;;;5050288;28;20609;-82
2020/12/09 04:46:20;;;;;;;43.03;24.98;;;2.80;99.90;;;;;;5036179;28;20200;-82
2020/12/09 04:48:56;;;;;;;40.83;26.48;;;2.90;99.90;;;;;;5030924;28;20231;-82
2020/12/09 04:51:51;;;;;;;39.63;25.52;;;2.90;99.90;;;;;;5031204;28;20232;-82
2020/12/09 04:54:18;;;;;;;50.63;25.42;;;2.80;99.90;;;;;;5029458;28;20282;-82
2020/12/09 04:56:55;;;;;;;39.95;24.83;;;2.70;99.90;;;;;;5030048;28;20212;-82
2020/12/09 04:59:24;;;;;;;38.92;25.80;;;2.70;99.90;;;;;;5030882;28;20207;-82
2020/12/09 05:02:03;;;;;;;41.47;25.98;;;2.60;99.90;;;;;;5030828;28;20209;-82
2020/12/09 05:04:32;;;;;;;43.60;25.38;;;2.60;99.90;;;;;;5030022;28;20672;-83
2020/12/09 05:07:05;;;;;;;42.78;26.00;;;2.50;99.90;;;;;;5029938;28;20197;-82
2020/12/09 05:09:38;;;;;;;44.38;26.17;;;2.50;99.90;;;;;;5030691;28;20271;-83
2020/12/09 05:12:07;;;;;;;40.03;26.65;;;2.70;99.90;;;;;;5030940;28;20314;-82
2020/12/09 05:14:37;;;;;;;34.90;23.52;;;2.80;99.90;;;;;;5029702;28;20715;-82
2020/12/09 05:17:05;;;;;;;40.05;24.38;;;2.70;99.90;;;;;;5030572;28;20292;-82
2020/12/09 05:19:32;;;;;;;42.83;25.73;;;2.70;99.90;;;;;;5030181;28;20204;-82
2020/12/09 05:21:59;;;;;;;37.55;23.13;;;2.70;99.90;;;;;;5029502;28;20224;-82
2020/12/09 05:24:26;;;;;;;44.70;25.88;;;2.80;99.90;;;;;;5029895;28;20684;-82
2020/12/09 05:26:53;;;;;;;44.83;26.33;;;3.00;99.90;;;;;;5030767;28;20286;-82
2020/12/09 05:29:20;;;;;;;36.03;22.55;;;3.00;99.90;;;;;;5030735;28;20759;-82
2020/12/09 05:31:49;;;;;;;39.03;23.90;;;3.00;99.90;;;;;;5029974;28;20197;-82
2020/12/09 05:34:32;;;;;;;39.40;25.52;;;3.10;99.90;;;;;;5029901;28;20756;-82
2020/12/09 05:37:00;;;;;;;36.83;23.77;;;3.10;99.90;;;;;;5030762;28;20262;-83
2020/12/09 05:39:27;;;;;;;37.42;23.85;;;2.90;99.90;;;;;;5030514;28;20236;-84
2020/12/09 05:41:54;;;;;;;41.85;23.80;;;2.90;99.90;;;;;;5030334;28;20250;-84
2020/12/09 05:44:22;;;;;;;33.70;21.70;;;2.80;99.90;;;;;;5029368;28;20204;-84
2020/12/09 05:46:57;;;;;;;36.22;21.77;;;2.80;99.90;;;;;;5050405;28;20199;-84
2020/12/09 05:49:26;;;;;;;33.20;22.33;;;2.60;99.90;;;;;;5050376;28;20195;-83
2020/12/09 05:52:06;;;;;;;32.08;22.10;;;2.50;99.90;;;;;;5050181;28;20204;-84
2020/12/09 05:54:33;;;;;;;32.15;20.98;;;2.50;99.90;;;;;;5049496;28;20239;-84
2020/12/09 05:57:04;;;;;;;39.83;22.10;;;2.50;99.90;;;;;;5050223;28;20242;-84
2020/12/09 05:59:32;;;;;;;34.88;23.70;;;2.60;99.90;;;;;;5050326;28;20336;-84
2020/12/09 06:02:10;;;;;;;33.88;21.50;;;2.70;99.90;;;;;;5050526;28;20919;-84
2020/12/09 06:04:50;;;;;;;32.95;23.50;;;2.70;99.90;;;;;;5049634;28;20256;-84
2020/12/09 06:07:18;;;;;;;35.65;22.35;;;2.60;99.90;;;;;;5049700;28;20258;-83
2020/12/09 06:10:13;;;;;;;38.30;22.02;;;2.80;99.90;;;;;;5049616;28;20754;-84
2020/12/09 06:12:57;;;;;;;33.85;22.40;;;3.00;99.90;;;;;;5054070;28;20246;-84
2020/12/09 06:15:25;;;;;;;32.65;23.05;;;3.20;99.90;;;;;;5053100;28;20725;-84
2020/12/09 06:18:05;;;;;;;30.50;22.30;;;2.90;99.90;;;;;;5054657;28;20200;-84
2020/12/09 06:20:34;;;;;;;37.05;23.67;;;2.80;99.90;;;;;;5054815;28;20617;-84
2020/12/09 06:23:01;;;;;;;35.25;20.50;;;2.80;99.90;;;;;;5052691;28;20379;-84
2020/12/09 06:25:28;;;;;;;37.13;22.40;;;2.70;99.90;;;;;;5053388;28;20273;-84
2020/12/09 06:27:56;;;;;;;35.75;21.85;;;2.80;99.90;;;;;;5054489;28;20231;-83
2020/12/09 06:30:29;;;;;;;32.45;21.67;;;2.60;99.90;;;;;;5053758;28;20259;-84
2020/12/09 06:32:56;;;;;;;33.35;20.92;;;2.40;99.90;;;;;;5053654;28;20601;-84
2020/12/09 06:35:23;;;;;;;35.35;23.20;;;2.50;99.90;;;;;;5042990;28;20200;-84
2020/12/09 06:38:13;;;;;;;36.22;21.00;;;2.60;99.90;;;;;;5035498;28;20193;-84
2020/12/09 06:41:00;;;;;;;41.78;23.95;;;2.70;99.90;;;;;;5042756;28;20230;-84
2020/12/09 06:43:27;;;;;;;35.15;21.58;;;2.70;99.90;;;;;;5042025;28;20616;-84
2020/12/09 06:45:54;;;;;;;36.10;22.52;;;2.80;99.90;;;;;;5048651;28;20235;-85
2020/12/09 06:48:21;;;;;;;35.80;22.05;;;2.90;99.90;;;;;;5052868;28;20548;-85
2020/12/09 06:50:48;;;;;;;34.55;21.23;;;3.00;99.90;;;;;;5052701;28;20212;-85
2020/12/09 06:53:15;;;;;;;33.10;23.10;;;2.80;99.90;;;;;;5051771;28;20258;-84
2020/12/09 06:55:42;;;;;;;34.08;21.95;;;2.70;99.90;;;;;;5051434;28;20196;-85
2020/12/09 06:58:27;;;;;;;36.45;22.55;;;2.80;99.90;;;;;;5053022;28;20231;-85
2020/12/09 07:00:58;;;;;;;35.78;23.00;;;3.00;99.90;;;;;;5050598;28;20204;-85
2020/12/09 07:03:26;;;;;;;37.28;23.25;;;3.00;99.90;;;;;;5052209;28;20194;-84
2020/12/09 07:05:52;;;;;;;43.40;25.38;;;3.10;99.90;;;;;;5044390;28;20203;-85
2020/12/09 07:08:18;;;;;;;33.28;22.15;;;3.10;99.90;;;;;;5051274;28;20193;-85
2020/12/09 07:10:45;;;;;;;42.25;24.85;;;3.10;99.90;;;;;;5039092;28;20278;-85
2020/12/09 07:13:13;;;;;;;43.10;24.20;;;3.00;99.90;;;;;;5046587;28;20196;-85
2020/12/09 07:15:43;;;;;;;39.47;23.80;;;3.10;99.90;;;;;;5040104;28;20428;-85
2020/12/09 07:18:10;;;;;;;46.10;24.75;;;3.10;99.90;;;;;;5049279;28;20235;-86
2020/12/09 07:20:36;;;;;;;33.33;21.70;;;3.10;99.90;;;;;;5041861;28;20235;-85
2020/12/09 07:23:04;;;;;;;31.48;22.08;;;3.30;99.90;;;;;;5048807;28;20197;-85
2020/12/09 07:25:31;;;;;;;35.35;24.63;;;3.40;99.90;;;;;;5043957;28;20192;-85
2020/12/09 07:27:58;;;;;;;36.95;22.63;;;3.50;99.90;;;;;;5046866;28;20192;-86
2020/12/09 07:30:25;;;;;;;39.83;23.77;;;3.40;99.90;;;;;;5049595;28;20269;-85
2020/12/09 07:32:54;;;;;;;38.58;24.95;;;3.30;99.90;;;;;;5047594;28;20649;-86
2020/12/09 07:35:21;;;;;;;36.92;21.55;;;3.20;99.90;;;;;;5045624;28;20585;-86
2020/12/09 07:37:52;;;;;;;37.30;22.10;;;3.10;99.90;;;;;;5045683;28;20377;-85
2020/12/09 07:40:23;;;;;;;37.83;23.70;;;3.10;99.90;;;;;;5047657;28;20298;-86
2020/12/09 07:43:07;;;;;;;34.25;21.40;;;3.10;99.90;;;;;;5051704;28;20211;-85
2020/12/09 07:45:34;;;;;;;36.35;23.52;;;3.00;99.90;;;;;;5047706;28;20196;-85
2020/12/09 07:48:04;;;;;;;34.97;22.15;;;2.80;99.90;;;;;;5046540;28;20244;-85
2020/12/09 07:50:31;;;;;;;35.83;22.38;;;2.80;99.90;;;;;;5035855;28;20220;-86
2020/12/09 07:52:58;;;;;;;36.08;23.50;;;2.90;99.90;;;;;;5040069;28;20247;-86
2020/12/09 07:55:26;;;;;;;36.30;22.88;;;2.80;99.90;;;;;;5041021;28;20196;-85
2020/12/09 07:58:03;;;;;;;36.78;24.35;;;3.00;99.90;;;;;;5041485;28;20212;-86
2020/12/09 08:00:34;;;;;;;40.30;24.67;;;2.90;99.90;;;;;;5036666;28;20536;-86
2020/12/09 08:03:03;;;;;;;31.70;22.77;;;3.00;99.90;;;;;;5044334;28;20247;-86
2020/12/09 08:05:34;;;;;;;35.40;22.70;;;2.90;99.90;;;;;;5046927;28;20197;-85
2020/12/09 08:08:03;;;;;;;36.97;23.88;;;3.00;99.90;;;;;;5031691;28;20274;-85
2020/12/09 08:10:31;;;;;;;44.72;26.10;;;3.20;99.90;;;;;;5033853;28;20243;-85
2020/12/09 08:13:05;;;;;;;34.63;23.02;;;3.30;99.90;;;;;;5050401;28;20256;-86
2020/12/09 08:15:32;;;;;;;38.72;23.40;;;3.20;99.90;;;;;;5050274;28;20187;-85
2020/12/09 08:17:59;;;;;;;36.13;24.60;;;3.30;99.90;;;;;;5050944;28;20192;-86
2020/12/09 08:20:29;;;;;;;36.00;21.67;;;3.40;99.90;;;;;;5050657;28;20265;-85
2020/12/09 08:23:00;;;;;;;30.60;21.60;;;3.70;99.90;;;;;;5048406;28;20253;-86
2020/12/09 08:25:29;;;;;;;34.10;21.88;;;3.50;99.90;;;;;;5050567;28;20537;-86
2020/12/09 08:27:57;;;;;;;32.75;22.50;;;3.60;99.90;;;;;;5047739;28;20257;-86
2020/12/09 08:30:25;;;;;;;35.20;22.90;;;3.70;99.90;;;;;;5034196;28;20238;-86
2020/12/09 08:32:57;;;;;;;34.33;23.48;;;3.60;99.90;;;;;;5046666;28;20195;-86
2020/12/09 08:35:24;;;;;;;33.03;21.08;;;3.70;99.90;;;;;;5046411;28;20658;-86
2020/12/09 08:37:52;;;;;;;36.80;22.88;;;3.80;99.90;;;;;;5045885;28;20189;-87
2020/12/09 08:40:18;;;;;;;29.95;20.60;;;3.70;99.90;;;;;;5049585;28;20446;-86
2020/12/09 08:42:55;;;;;;;39.78;23.65;;;3.70;99.90;;;;;;5047593;28;20199;-86
2020/12/09 08:45:23;;;;;;;34.35;22.00;;;3.80;99.90;;;;;;5045582;28;20911;-84
2020/12/09 08:47:49;;;;;;;36.85;22.35;;;3.40;99.90;;;;;;5050064;28;20252;-85
2020/12/09 08:50:17;;;;;;;33.35;22.00;;;3.30;99.90;;;;;;5049401;28;20251;-84
2020/12/09 08:52:44;;;;;;;35.97;22.80;;;3.30;99.90;;;;;;5045948;28;20568;-85
2020/12/09 08:55:14;;;;;;;32.35;22.02;;;4.40;99.90;;;;;;5043644;28;20196;-85
2020/12/09 08:57:40;;;;;;;33.60;20.65;;;3.20;99.90;;;;;;5048330;28;20218;-86
2020/12/09 09:00:09;;;;;;;30.73;21.05;;;3.10;99.90;;;;;;5048467;28;20740;-84
2020/12/09 09:02:41;;;;;;;33.10;22.52;;;3.20;99.90;;;;;;5048350;28;20550;-86
2020/12/09 09:05:08;;;;;;;39.53;23.73;;;3.20;99.90;;;;;;5046921;28;20551;-85
2020/12/09 09:07:34;;;;;;;40.30;23.10;;;3.30;99.90;;;;;;5050110;28;20200;-86
2020/12/09 09:10:01;;;;;;;36.70;22.67;;;3.20;99.90;;;;;;5045543;28;20215;-85
2020/12/09 09:12:28;;;;;;;33.10;23.20;;;3.20;99.90;;;;;;5049668;28;20243;-85
2020/12/09 09:14:54;;;;;;;31.33;20.65;;;2.90;99.90;;;;;;5046437;28;20196;-85
2020/12/09 09:17:21;;;;;;;30.13;22.40;;;2.80;99.90;;;;;;5048457;28;20196;-85
2020/12/09 09:19:48;;;;;;;31.92;21.02;;;2.90;99.90;;;;;;5047057;28;20723;-85
2020/12/09 09:22:14;;;;;;;38.35;23.95;;;3.20;99.90;;;;;;5049581;28;20200;-85
2020/12/09 09:24:41;;;;;;;37.33;22.83;;;3.50;99.90;;;;;;5047878;28;20188;-85
2020/12/09 09:27:11;;;;;;;37.22;23.52;;;3.00;99.90;;;;;;5038794;28;20612;-84
2020/12/09 09:29:39;;;;;;;35.47;23.55;;;3.10;99.90;;;;;;5037963;28;20602;-85
2020/12/09 09:32:06;;;;;;;36.83;22.95;;;3.00;99.90;;;;;;5044456;28;20196;-85
2020/12/09 09:34:33;;;;;;;34.95;22.42;;;2.90;99.90;;;;;;5049285;28;20204;-85
2020/12/09 09:36:59;;;;;;;32.08;23.40;;;2.80;99.90;;;;;;5049911;28;20208;-85
2020/12/09 09:39:26;;;;;;;34.45;22.05;;;2.70;99.90;;;;;;5050244;28;20203;-83
2020/12/09 09:41:56;;;;;;;37.35;22.80;;;2.90;99.90;;;;;;5048607;28;20664;-84
2020/12/09 09:44:23;;;;;;;36.85;22.63;;;3.10;99.90;;;;;;5050285;28;20266;-85
2020/12/09 09:46:50;;;;;;;38.30;24.58;;;3.30;99.90;;;;;;5048526;28;20737;-86
2020/12/09 09:49:16;;;;;;;39.88;23.98;;;3.30;99.90;;;;;;5050380;28;20230;-85
2020/12/09 09:51:43;;;;;;;39.60;22.83;;;3.20;99.90;;;;;;5045955;28;20224;-84
2020/12/09 09:54:09;;;;;;;37.25;22.58;;;3.10;99.90;;;;;;5047862;28;20294;-84
2020/12/09 09:56:36;;;;;;;36.47;24.48;;;3.20;99.90;;;;;;5047930;28;20990;-84
2020/12/09 09:59:02;;;;;;;35.25;24.67;;;3.40;99.90;;;;;;5049160;28;20204;-85
2020/12/09 10:01:28;;;;;;;41.20;25.08;;;3.40;99.90;;;;;;5047180;28;20309;-85
2020/12/09 10:03:56;;;;;;;37.20;24.13;;;3.50;99.90;;;;;;5049805;28;20196;-85
2020/12/09 10:06:22;;;;;;;37.75;24.27;;;3.50;99.90;;;;;;5049486;28;20269;-85
2020/12/09 10:08:49;;;;;;;40.35;25.42;;;3.50;99.90;;;;;;5049316;28;20200;-84
2020/12/09 10:11:16;;;;;;;34.47;23.90;;;3.80;99.90;;;;;;5038185;28;20274;-85
2020/12/09 10:13:48;;;;;;;37.97;22.92;;;3.80;99.90;;;;;;5045830;28;20907;-85
2020/12/09 10:16:22;;;;;;;43.45;26.58;;;3.70;99.90;;;;;;5047661;28;20211;-85
2020/12/09 10:18:49;;;;;;;40.88;25.58;;;3.50;99.90;;;;;;5049356;28;20215;-85
2020/12/09 10:21:25;;;;;;;40.47;25.38;;;3.30;99.90;;;;;;5039704;28;20228;-84
2020/12/09 10:23:52;;;;;;;40.33;26.27;;;3.10;99.90;;;;;;5038178;28;20222;-85
2020/12/09 10:26:19;;;;;;;42.00;25.38;;;3.00;99.90;;;;;;5048806;28;20196;-85
2020/12/09 10:28:46;;;;;;;36.95;23.20;;;3.20;99.90;;;;;;5032627;28;20189;-85
2020/12/09 10:31:13;;;;;;;39.22;24.80;;;3.10;99.90;;;;;;5038304;28;20303;-84
2020/12/09 10:33:39;;;;;;;35.20;23.83;;;3.10;99.90;;;;;;5038557;28;20208;-84
2020/12/09 10:36:06;;;;;;;37.00;24.23;;;3.00;99.90;;;;;;5041563;28;20548;-85
2020/12/09 10:38:33;;;;;;;38.65;23.30;;;3.10;99.90;;;;;;5049101;28;20649;-85
2020/12/09 10:41:00;;;;;;;42.63;26.13;;;3.30;99.90;;;;;;5036675;28;20255;-85
2020/12/09 10:43:27;;;;;;;41.22;25.85;;;3.40;99.90;;;;;;5047854;28;20195;-85
2020/12/09 10:45:53;;;;;;;43.22;25.08;;;3.40;99.90;;;;;;5043597;28;20196;-85
2020/12/09 10:48:20;;;;;;;40.10;26.38;;;3.50;99.90;;;;;;5048999;28;20254;-85
2020/12/09 10:50:47;;;;;;;39.35;24.30;;;3.40;99.90;;;;;;5037784;28;20220;-85
2020/12/09 10:53:13;;;;;;;41.63;26.65;;;3.40;99.90;;;;;;5046784;28;20197;-85
2020/12/09 10:55:40;;;;;;;39.67;25.60;;;3.40;99.90;;;;;;5045066;28;20235;-85
2020/12/09 10:58:07;;;;;;;36.55;23.77;;;3.40;99.90;;;;;;5050972;28;20581;-85
2020/12/09 11:00:33;;;;;;;39.60;25.27;;;3.30;99.90;;;;;;5047441;28;20201;-85
2020/12/09 11:03:00;;;;;;;36.05;24.88;;;3.30;99.90;;;;;;5035490;28;20347;-84
2020/12/09 11:05:26;;;;;;;42.28;24.63;;;3.20;99.90;;;;;;5052717;28;20227;-85
2020/12/09 11:07:52;;;;;;;41.25;24.20;;;3.20;99.90;;;;;;5051782;28;20261;-85
2020/12/09 11:10:19;;;;;;;34.88;24.02;;;3.00;99.90;;;;;;5049749;28;20301;-85
2020/12/09 11:12:46;;;;;;;38.72;25.40;;;5.00;99.90;;;;;;5039846;28;20199;-85
2020/12/09 11:15:12;;;;;;;35.75;23.52;;;3.20;99.90;;;;;;5041199;28;20643;-85
2020/12/09 11:17:39;;;;;;;46.97;24.95;;;3.00;99.90;;;;;;5052316;28;20277;-85
2020/12/09 11:20:06;;;;;;;41.28;24.17;;;3.00;99.90;;;;;;5052689;28;20649;-85
2020/12/09 11:22:32;;;;;;;34.50;22.73;;;3.00;99.90;;;;;;5051620;28;20245;-85
2020/12/09 11:24:59;;;;;;;34.42;24.25;;;2.90;99.90;;;;;;5052628;28;20196;-86
2020/12/09 11:27:25;;;;;;;34.92;22.65;;;2.70;99.90;;;;;;5051040;28;20258;-86
2020/12/09 11:29:53;;;;;;;36.60;23.55;;;2.70;99.90;;;;;;5051798;28;20238;-85
2020/12/09 11:32:19;;;;;;;35.10;24.35;;;2.90;99.90;;;;;;5043924;28;20228;-86
2020/12/09 11:34:46;;;;;;;42.00;24.65;;;3.00;99.90;;;;;;5046034;28;20228;-86
2020/12/09 11:37:12;;;;;;;40.70;23.55;;;3.10;99.90;;;;;;5033411;28;20686;-86
2020/12/09 11:39:38;;;;;;;38.50;24.88;;;3.00;99.90;;;;;;5049578;28;20200;-85
2020/12/09 11:42:05;;;;;;;42.22;25.67;;;3.00;99.90;;;;;;5052618;28;20204;-86
2020/12/09 11:44:31;;;;;;;39.08;25.10;;;3.20;99.90;;;;;;5052650;28;20227;-86
2020/12/09 11:47:00;;;;;;;35.90;24.17;;;3.10;99.90;;;;;;5052589;28;20250;-85
2020/12/09 11:49:27;;;;;;;33.55;22.55;;;3.10;99.90;;;;;;5053772;28;20865;-85
2020/12/09 11:51:54;;;;;;;36.72;23.42;;;2.80;99.90;;;;;;5043336;28;20224;-85
2020/12/09 11:54:21;;;;;;;40.67;25.20;;;4.00;99.90;;;;;;5049940;28;20715;-87
2020/12/09 11:56:47;;;;;;;45.20;23.25;;;4.10;99.90;;;;;;5047552;28;20267;-86
2020/12/09 11:59:14;;;;;;;39.75;24.70;;;3.30;99.90;;;;;;5043305;28;20239;-86
2020/12/09 12:01:40;;;;;;;45.75;25.42;;;3.50;99.90;;;;;;5046627;28;20613;-86
2020/12/09 12:04:07;;;;;;;34.13;23.38;;;3.70;99.90;;;;;;5034173;28;20267;-86
2020/12/09 12:06:34;;;;;;;40.55;25.02;;;3.20;99.90;;;;;;5049509;28;20222;-85
2020/12/09 12:09:03;;;;;;;38.80;22.75;;;3.20;99.90;;;;;;5042234;28;20262;-85
2020/12/09 12:11:30;;;;;;;35.85;20.20;;;3.10;99.90;;;;;;5050681;28;20266;-86
2020/12/09 12:14:59;;;;;;;32.65;21.38;;;3.00;99.90;;;;;;5043404;28;20259;-88
2020/12/09 12:17:27;;;;;;;37.17;21.80;;;3.00;99.90;;;;;;5046190;28;20225;-86
2020/12/09 12:19:55;;;;;;;36.25;21.33;;;4.20;99.90;;;;;;5048351;28;20312;-86
2020/12/09 12:22:21;;;;;;;37.95;23.60;;;2.90;99.90;;;;;;5051150;28;20200;-87
2020/12/09 12:24:51;;;;;;;40.30;23.10;;;2.80;99.90;;;;;;5050293;28;20199;-86
2020/12/09 12:27:17;;;;;;;36.40;22.77;;;2.80;99.90;;;;;;5043563;28;20624;-87
2020/12/09 12:29:44;;;;;;;36.72;24.45;;;2.80;99.90;;;;;;5040420;28;20901;-87
2020/12/09 12:32:11;;;;;;;42.72;25.75;;;2.60;99.90;;;;;;5044590;28;20224;-86
2020/12/09 12:34:37;;;;;;;40.53;22.67;;;2.50;99.90;;;;;;5035944;28;20198;-87
2020/12/09 12:37:05;;;;;;;48.63;22.52;;;2.60;99.90;;;;;;5051237;28;20258;-86
2020/12/09 12:39:32;;;;;;;45.13;23.80;;;2.80;99.90;;;;;;5042175;28;20197;-87
2020/12/09 12:41:58;;;;;;;46.15;25.60;;;3.10;99.90;;;;;;5029873;28;20251;-86